Time;durP1;ratioP1;P1;durP2;ratioP2;P2;SDS_P1;SDS_P2;PMS_P1;PMS_P2;Temp;Humidity;BMP_temperature;BMP_pressure;BME280_temperature;BME280_humidity;BME280_pressure;Samples;Min_cycle;Max_cycle;Signal;HPM_P1;HPM_P2
2023/10/07 00:00:59;;;;;;;5.30;2.22;;;;;;;;;;5019967;28;20102;-78
2023/10/07 00:03:25;;;;;;;3.30;2.65;;;;;;;;;;5039349;28;20072;-78
2023/10/07 00:06:00;;;;;;;2.35;2.15;;;;;;;;;;5039243;28;20017;-77
2023/10/07 00:08:27;;;;;;;3.97;2.65;;;;;;;;;;5039166;28;20049;-77
2023/10/07 00:10:54;;;;;;;3.17;2.42;;;;;;;;;;5021226;28;20056;-77
2023/10/07 00:13:22;;;;;;;3.72;2.42;;;;;;;;;;5022560;28;20037;-77
2023/10/07 00:15:51;;;;;;;3.25;2.63;;;;;;;;;;5019842;28;20049;-77
2023/10/07 00:18:18;;;;;;;3.65;3.13;;;;;;;;;;5019842;28;20145;-78
2023/10/07 00:20:48;;;;;;;2.95;2.20;;;;;;;;;;5019985;28;20018;-78
2023/10/07 00:23:26;;;;;;;2.30;2.10;;;;;;;;;;5020210;28;20029;-78
2023/10/07 00:25:53;;;;;;;2.88;2.25;;;;;;;;;;5002481;28;20114;-77
2023/10/07 00:28:32;;;;;;;2.35;2.13;;;;;;;;;;5020370;28;20440;-78
2023/10/07 00:31:05;;;;;;;3.00;2.13;;;;;;;;;;5020374;28;20022;-77
2023/10/07 00:33:50;;;;;;;2.70;2.15;;;;;;;;;;5004729;28;20025;-78
2023/10/07 00:36:41;;;;;;;2.80;2.35;;;;;;;;;;5019679;28;20364;-77
2023/10/07 00:39:19;;;;;;;1.73;1.63;;;;;;;;;;5019814;28;20132;-78
2023/10/07 00:41:47;;;;;;;2.20;2.00;;;;;;;;;;5020187;28;20030;-78
2023/10/07 00:44:17;;;;;;;2.60;2.30;;;;;;;;;;5002661;28;20084;-78
2023/10/07 00:47:07;;;;;;;3.83;2.20;;;;;;;;;;5044889;28;20182;-77
2023/10/07 00:49:57;;;;;;;2.17;1.85;;;;;;;;;;5044405;28;20044;-77
2023/10/07 00:52:33;;;;;;;3.03;2.17;;;;;;;;;;5045393;28;20484;-77
2023/10/07 00:57:35;;;;;;;2.88;2.22;;;;;;;;;;5027448;28;20053;-77
2023/10/07 01:00:12;;;;;;;3.08;2.05;;;;;;;;;;5024824;28;20025;-77
2023/10/07 01:02:39;;;;;;;3.13;2.25;;;;;;;;;;5023787;28;20050;-78
2023/10/07 01:05:27;;;;;;;2.28;1.85;;;;;;;;;;5007474;28;20069;-78
2023/10/07 01:07:53;;;;;;;2.15;1.83;;;;;;;;;;5032517;28;20025;-77
2023/10/07 01:10:27;;;;;;;2.53;1.73;;;;;;;;;;5012479;28;20095;-78
2023/10/07 01:12:56;;;;;;;2.35;2.05;;;;;;;;;;5004088;28;20110;-78
2023/10/07 01:15:26;;;;;;;1.90;1.65;;;;;;;;;;5026742;28;20022;-78
2023/10/07 01:18:06;;;;;;;2.22;1.77;;;;;;;;;;5022559;28;20039;-78
2023/10/07 01:20:45;;;;;;;1.95;1.55;;;;;;;;;;5021906;28;20030;-78
2023/10/07 01:23:17;;;;;;;2.08;1.90;;;;;;;;;;5020852;28;20022;-78
2023/10/07 01:25:44;;;;;;;2.30;2.10;;;;;;;;;;5016166;28;20124;-77
2023/10/07 01:28:15;;;;;;;2.25;2.00;;;;;;;;;;5016305;28;20030;-77
2023/10/07 01:30:51;;;;;;;1.73;1.50;;;;;;;;;;5015346;28;20100;-77
2023/10/07 01:33:34;;;;;;;2.33;1.88;;;;;;;;;;4997395;28;20480;-77
2023/10/07 01:38:51;;;;;;;2.10;1.90;;;;;;;;;;5016599;28;20032;-77
2023/10/07 01:41:18;;;;;;;1.67;1.40;;;;;;;;;;5017514;28;20041;-78
2023/10/07 01:44:06;;;;;;;1.67;1.45;;;;;;;;;;5016806;28;20018;-78
2023/10/07 01:46:32;;;;;;;1.58;1.40;;;;;;;;;;5017586;28;20450;-78
2023/10/07 01:49:05;;;;;;;2.08;1.50;;;;;;;;;;5017689;28;20022;-77
2023/10/07 01:51:31;;;;;;;1.80;1.70;;;;;;;;;;5001784;28;20084;-77
2023/10/07 01:54:02;;;;;;;1.73;1.63;;;;;;;;;;5036232;28;20026;-77
2023/10/07 01:56:31;;;;;;;1.88;1.65;;;;;;;;;;5035764;28;20026;-77
2023/10/07 01:59:04;;;;;;;2.17;1.80;;;;;;;;;;5035430;28;20345;-76
2023/10/07 02:01:30;;;;;;;;;;;;;;;;;;5037057;28;20087;-77
2023/10/07 02:03:57;;;;;;;2.13;1.70;;;;;;;;;;5037552;28;19909;-76
2023/10/07 02:06:28;;;;;;;1.92;1.80;;;;;;;;;;5041849;28;20021;-78
2023/10/07 02:08:55;;;;;;;1.40;1.30;;;;;;;;;;5049279;28;20029;-77
2023/10/07 02:11:29;;;;;;;1.60;1.45;;;;;;;;;;5027321;28;20053;-78
2023/10/07 02:13:58;;;;;;;1.55;1.45;;;;;;;;;;5024433;28;20026;-78
2023/10/07 02:16:27;;;;;;;1.55;1.40;;;;;;;;;;5021776;28;20029;-78
2023/10/07 02:18:53;;;;;;;2.20;1.80;;;;;;;;;;5021048;28;20480;-78
2023/10/07 02:21:20;;;;;;;1.27;1.17;;;;;;;;;;5018534;28;20057;-77
2023/10/07 02:23:47;;;;;;;1.58;1.48;;;;;;;;;;5016824;28;20041;-77
2023/10/07 02:26:20;;;;;;;1.67;1.58;;;;;;;;;;5016018;28;20041;-77
2023/10/07 02:28:51;;;;;;;2.15;1.33;;;;;;;;;;4998090;28;20026;-78
2023/10/07 02:31:20;;;;;;;2.67;1.85;;;;;;;;;;5016505;28;20021;-78
2023/10/07 02:33:53;;;;;;;1.80;1.55;;;;;;;;;;5024184;28;20056;-77
2023/10/07 02:36:31;;;;;;;1.67;1.58;;;;;;;;;;5017510;28;20534;-77
2023/10/07 02:39:04;;;;;;;1.88;1.10;;;;;;;;;;5035283;28;20036;-78
2023/10/07 02:41:31;;;;;;;1.75;1.38;;;;;;;;;;5037673;28;20519;-79
2023/10/07 02:44:04;;;;;;;1.90;1.60;;;;;;;;;;5037818;28;20025;-78
2023/10/07 02:46:33;;;;;;;1.75;1.60;;;;;;;;;;5035617;28;20030;-77
2023/10/07 02:49:09;;;;;;;1.45;1.35;;;;;;;;;;5033036;28;20081;-77
2023/10/07 02:51:39;;;;;;;1.75;1.27;;;;;;;;;;5017731;28;20097;-78
2023/10/07 02:54:19;;;;;;;2.13;1.50;;;;;;;;;;5036079;28;20029;-77
2023/10/07 02:59:41;;;;;;;1.52;1.42;;;;;;;;;;5035140;28;20115;-78
2023/10/07 03:05:13;;;;;;;1.63;1.52;;;;;;;;;;5025671;28;20171;-78
2023/10/07 03:07:41;;;;;;;2.40;1.70;;;;;;;;;;5022888;28;20034;-77
2023/10/07 03:10:18;;;;;;;1.65;1.38;;;;;;;;;;5024730;28;20543;-77
2023/10/07 03:12:48;;;;;;;1.55;1.40;;;;;;;;;;5012871;28;20046;-77
2023/10/07 03:15:28;;;;;;;2.10;1.77;;;;;;;;;;5023865;28;20034;-77
2023/10/07 03:17:55;;;;;;;1.95;1.73;;;;;;;;;;5020233;28;20040;-77
2023/10/07 03:28:20;;;;;;;2.05;1.70;;;;;;;;;;5022874;28;20393;-77
2023/10/07 03:30:51;;;;;;;2.30;1.70;;;;;;;;;;5021911;28;20417;-77
2023/10/07 03:33:43;;;;;;;2.13;1.63;;;;;;;;;;5026644;28;20033;-77
2023/10/07 03:36:31;;;;;;;2.20;1.90;;;;;;;;;;5035830;28;20010;-77
2023/10/07 03:39:00;;;;;;;2.05;1.85;;;;;;;;;;5048812;28;20412;-77
2023/10/07 03:41:26;;;;;;;1.85;1.60;;;;;;;;;;5041636;28;20028;-77
2023/10/07 03:43:52;;;;;;;2.20;1.85;;;;;;;;;;5041105;28;20030;-78
2023/10/07 03:46:18;;;;;;;1.85;1.60;;;;;;;;;;5038822;28;20025;-78
2023/10/07 03:48:53;;;;;;;1.65;1.52;;;;;;;;;;5038778;28;20037;-79
2023/10/07 03:51:22;;;;;;;3.15;2.33;;;;;;;;;;5024784;28;20027;-77
2023/10/07 03:53:49;;;;;;;2.40;1.88;;;;;;;;;;5042898;28;20018;-78
2023/10/07 03:56:16;;;;;;;1.60;1.40;;;;;;;;;;5043823;28;20026;-77
2023/10/07 03:58:43;;;;;;;1.98;1.77;;;;;;;;;;5045527;28;20172;-77
2023/10/07 04:01:18;;;;;;;1.70;1.50;;;;;;;;;;5046917;28;20077;-77
2023/10/07 04:03:49;;;;;;;1.85;1.70;;;;;;;;;;5044946;28;20025;-78
2023/10/07 04:06:17;;;;;;;2.00;1.60;;;;;;;;;;5038621;28;20092;-78
2023/10/07 04:08:44;;;;;;;1.70;1.60;;;;;;;;;;5026686;28;20029;-77
2023/10/07 04:11:19;;;;;;;2.38;1.92;;;;;;;;;;5025575;28;20041;-78
2023/10/07 04:13:45;;;;;;;2.10;1.80;;;;;;;;;;5023746;28;20468;-78
2023/10/07 04:16:24;;;;;;;1.98;1.80;;;;;;;;;;5004112;28;20037;-77
2023/10/07 04:18:51;;;;;;;2.20;1.92;;;;;;;;;;5028208;28;20022;-78
2023/10/07 04:21:17;;;;;;;2.03;1.75;;;;;;;;;;5011446;28;20138;-77
2023/10/07 04:23:44;;;;;;;2.92;1.85;;;;;;;;;;5017156;28;20049;-77
2023/10/07 04:26:19;;;;;;;1.38;1.27;;;;;;;;;;5017940;28;20029;-78
2023/10/07 04:28:48;;;;;;;1.80;1.60;;;;;;;;;;5022596;28;20036;-77
2023/10/07 04:31:14;;;;;;;2.15;1.65;;;;;;;;;;5034166;28;20022;-77
2023/10/07 04:33:41;;;;;;;2.17;1.85;;;;;;;;;;5036700;28;20018;-78
2023/10/07 04:36:13;;;;;;;1.95;1.50;;;;;;;;;;5018683;28;20022;-77
2023/10/07 04:43:58;;;;;;;1.40;1.23;;;;;;;;;;5036248;28;20435;-77
2023/10/07 04:46:28;;;;;;;1.85;1.45;;;;;;;;;;5017779;28;20476;-77
2023/10/07 04:48:55;;;;;;;1.52;1.42;;;;;;;;;;5031010;28;20026;-76
2023/10/07 04:53:57;;;;;;;1.90;1.40;;;;;;;;;;5036707;28;20094;-77
2023/10/07 04:56:25;;;;;;;1.60;1.50;;;;;;;;;;5018468;28;20499;-78
2023/10/07 04:58:55;;;;;;;1.67;1.52;;;;;;;;;;5036626;28;20049;-77
2023/10/07 05:01:31;;;;;;;2.33;1.85;;;;;;;;;;5018944;28;20025;-76
2023/10/07 05:03:59;;;;;;;1.88;1.67;;;;;;;;;;5036811;28;20472;-78
2023/10/07 05:06:26;;;;;;;3.10;2.05;;;;;;;;;;5036082;28;20037;-78
2023/10/07 05:08:52;;;;;;;2.58;1.83;;;;;;;;;;5036976;28;20463;-77
2023/10/07 05:11:18;;;;;;;2.40;1.73;;;;;;;;;;5018662;28;20026;-77
2023/10/07 05:13:45;;;;;;;2.50;1.75;;;;;;;;;;5018822;28;20044;-78
2023/10/07 05:16:12;;;;;;;2.08;1.40;;;;;;;;;;5038737;28;20057;-77
2023/10/07 05:18:38;;;;;;;1.58;1.45;;;;;;;;;;5054392;28;20109;-77
2023/10/07 05:21:04;;;;;;;2.17;1.42;;;;;;;;;;5020813;28;20026;-77
2023/10/07 05:23:31;;;;;;;2.65;1.85;;;;;;;;;;5033011;28;20022;-77
2023/10/07 05:26:03;;;;;;;3.15;1.80;;;;;;;;;;5039044;28;20040;-77
2023/10/07 05:28:32;;;;;;;2.35;1.65;;;;;;;;;;5019340;28;20029;-78
2023/10/07 05:31:00;;;;;;;2.00;1.55;;;;;;;;;;5035749;28;20071;-78
2023/10/07 05:33:28;;;;;;;1.70;1.60;;;;;;;;;;5038946;28;20044;-78
2023/10/07 05:36:20;;;;;;;2.35;1.75;;;;;;;;;;5040175;28;20124;-78
2023/10/07 05:38:53;;;;;;;3.72;2.38;;;;;;;;;;5040701;28;20052;-78
2023/10/07 05:41:25;;;;;;;2.05;1.77;;;;;;;;;;5039800;28;20025;-77
2023/10/07 05:43:51;;;;;;;2.08;1.55;;;;;;;;;;5039703;28;20040;-78
2023/10/07 05:46:19;;;;;;;1.52;1.25;;;;;;;;;;5018798;28;20029;-77
2023/10/07 05:48:45;;;;;;;1.83;1.50;;;;;;;;;;5021221;28;20033;-79
2023/10/07 05:51:11;;;;;;;2.38;1.63;;;;;;;;;;5002386;28;20080;-78
2023/10/07 05:53:38;;;;;;;1.88;1.40;;;;;;;;;;5020984;28;20022;-78
2023/10/07 05:56:06;;;;;;;1.92;1.60;;;;;;;;;;5000133;28;20045;-78
2023/10/07 05:58:33;;;;;;;1.55;1.20;;;;;;;;;;5016965;28;20021;-77
2023/10/07 06:01:00;;;;;;;3.35;1.45;;;;;;;;;;5016477;28;20034;-77
2023/10/07 06:03:26;;;;;;;2.13;1.77;;;;;;;;;;5022787;28;20029;-78
2023/10/07 06:05:52;;;;;;;2.03;1.58;;;;;;;;;;5011927;28;20021;-78
2023/10/07 06:08:19;;;;;;;2.13;1.70;;;;;;;;;;5018685;28;20387;-78
2023/10/07 06:10:52;;;;;;;2.35;1.45;;;;;;;;;;5016527;28;20523;-77
2023/10/07 06:13:18;;;;;;;2.80;1.70;;;;;;;;;;5015647;28;20029;-77
2023/10/07 06:15:45;;;;;;;2.95;2.03;;;;;;;;;;5018015;28;20022;-78
2023/10/07 06:18:11;;;;;;;2.63;1.77;;;;;;;;;;5021588;28;20476;-76
2023/10/07 06:20:38;;;;;;;3.05;1.88;;;;;;;;;;5021855;28;20030;-77
2023/10/07 06:23:18;;;;;;;3.30;2.05;;;;;;;;;;5017472;28;20041;-78
2023/10/07 06:25:51;;;;;;;1.77;1.63;;;;;;;;;;5002067;28;20127;-78
2023/10/07 06:31:13;;;;;;;3.42;2.65;;;;;;;;;;5017477;28;20189;-78
2023/10/07 06:33:43;;;;;;;2.97;2.53;;;;;;;;;;5020023;28;20042;-78
2023/10/07 06:36:10;;;;;;;4.00;3.05;;;;;;;;;;5002167;28;20022;-78
2023/10/07 06:38:38;;;;;;;6.13;3.33;;;;;;;;;;5019438;28;20049;-77
2023/10/07 06:41:10;;;;;;;4.10;3.30;;;;;;;;;;5018158;28;20030;-78
2023/10/07 06:43:37;;;;;;;;;;;;;;;;;;5020716;28;20080;-78
2023/10/07 06:46:03;;;;;;;3.75;2.75;;;;;;;;;;5018105;28;19905;-77
2023/10/07 06:48:30;;;;;;;4.03;3.05;;;;;;;;;;5019631;28;20037;-77
2023/10/07 06:50:57;;;;;;;5.32;2.97;;;;;;;;;;5002383;28;20029;-77
2023/10/07 06:53:23;;;;;;;4.43;2.70;;;;;;;;;;5007680;28;20211;-77
2023/10/07 06:55:51;;;;;;;3.30;2.35;;;;;;;;;;5040616;28;20488;-78
2023/10/07 06:58:22;;;;;;;4.15;2.53;;;;;;;;;;5040082;28;20021;-78
2023/10/07 07:00:49;;;;;;;5.60;3.28;;;;;;;;;;5022290;28;20021;-77
2023/10/07 07:03:19;;;;;;;4.15;3.00;;;;;;;;;;5040188;28;20037;-79
2023/10/07 07:05:46;;;;;;;3.67;2.63;;;;;;;;;;5022333;28;20030;-79
2023/10/07 07:08:15;;;;;;;4.68;3.13;;;;;;;;;;5041203;28;20505;-78
2023/10/07 07:10:41;;;;;;;4.40;2.72;;;;;;;;;;5030964;28;20369;-78
2023/10/07 07:13:18;;;;;;;3.17;2.53;;;;;;;;;;5036124;28;20032;-77
2023/10/07 07:15:57;;;;;;;3.72;2.60;;;;;;;;;;5019995;28;20036;-78
2023/10/07 07:18:25;;;;;;;3.95;2.58;;;;;;;;;;5041030;28;20060;-78
2023/10/07 07:21:00;;;;;;;4.38;2.70;;;;;;;;;;5045407;28;20084;-77
2023/10/07 07:23:35;;;;;;;3.80;2.83;;;;;;;;;;5053579;28;20034;-78
2023/10/07 07:28:30;;;;;;;3.63;2.40;;;;;;;;;;5021304;28;20355;-78
2023/10/07 07:30:59;;;;;;;3.33;2.33;;;;;;;;;;5003306;28;20022;-78
2023/10/07 07:33:29;;;;;;;2.45;2.13;;;;;;;;;;5002620;28;20098;-78
2023/10/07 07:35:56;;;;;;;2.63;1.98;;;;;;;;;;5004946;28;20018;-78
2023/10/07 07:38:29;;;;;;;3.63;2.20;;;;;;;;;;5020813;28;20018;-78
2023/10/07 07:41:05;;;;;;;5.63;2.00;;;;;;;;;;5019192;28;20092;-77
2023/10/07 07:43:33;;;;;;;2.75;1.98;;;;;;;;;;5019338;28;20056;-77
2023/10/07 07:46:17;;;;;;;2.63;1.90;;;;;;;;;;5033458;28;20032;-77
2023/10/07 07:48:44;;;;;;;2.20;2.00;;;;;;;;;;5020028;28;20084;-78
2023/10/07 07:51:11;;;;;;;1.60;1.50;;;;;;;;;;5038447;28;20014;-78
2023/10/07 07:53:40;;;;;;;2.03;1.67;;;;;;;;;;5020444;28;20049;-77
2023/10/07 07:56:08;;;;;;;4.53;2.20;;;;;;;;;;5038559;28;20025;-77
2023/10/07 07:58:37;;;;;;;2.05;1.80;;;;;;;;;;5021298;28;20511;-77
2023/10/07 08:01:06;;;;;;;2.65;1.90;;;;;;;;;;5020762;28;20033;-77
2023/10/07 08:03:38;;;;;;;3.05;2.03;;;;;;;;;;5012756;28;20033;-77
2023/10/07 08:06:04;;;;;;;3.63;2.47;;;;;;;;;;5002571;28;20030;-76
2023/10/07 08:08:30;;;;;;;3.50;2.60;;;;;;;;;;5017666;28;20029;-77
2023/10/07 08:10:58;;;;;;;5.00;3.40;;;;;;;;;;5017055;28;20041;-78
2023/10/07 08:13:27;;;;;;;3.90;2.78;;;;;;;;;;5019541;28;20053;-78
2023/10/07 08:15:53;;;;;;;7.15;4.00;;;;;;;;;;5021944;28;20084;-78
2023/10/07 08:18:28;;;;;;;10.35;3.78;;;;;;;;;;5021351;28;20038;-78
2023/10/07 08:21:06;;;;;;;5.53;2.97;;;;;;;;;;5021112;28;20030;-77
2023/10/07 08:23:36;;;;;;;6.22;3.40;;;;;;;;;;5021557;28;20391;-77
2023/10/07 08:26:09;;;;;;;5.43;3.42;;;;;;;;;;5026435;28;20091;-77
2023/10/07 08:28:42;;;;;;;5.50;3.70;;;;;;;;;;5026375;28;20046;-77
2023/10/07 08:31:22;;;;;;;5.40;3.38;;;;;;;;;;5007870;28;20041;-77
2023/10/07 08:34:09;;;;;;;5.38;3.50;;;;;;;;;;5002427;28;20121;-77
2023/10/07 08:36:42;;;;;;;6.43;3.47;;;;;;;;;;5003547;28;20395;-77
2023/10/07 08:39:09;;;;;;;4.95;3.13;;;;;;;;;;5022753;28;20159;-77
2023/10/07 08:41:40;;;;;;;4.25;2.97;;;;;;;;;;5022943;28;20057;-76
2023/10/07 08:44:15;;;;;;;4.03;2.90;;;;;;;;;;5018240;28;20507;-77
2023/10/07 08:46:49;;;;;;;4.60;2.97;;;;;;;;;;5000176;28;20116;-77
2023/10/07 08:49:25;;;;;;;3.95;2.42;;;;;;;;;;4999842;28;20400;-77
2023/10/07 08:51:52;;;;;;;4.55;2.92;;;;;;;;;;4999739;28;20479;-77
2023/10/07 08:54:25;;;;;;;5.07;2.85;;;;;;;;;;5016477;28;20030;-77
2023/10/07 08:56:54;;;;;;;4.90;3.20;;;;;;;;;;5018598;28;20014;-76
2023/10/07 08:59:24;;;;;;;5.43;3.30;;;;;;;;;;5028709;28;20125;-77
2023/10/07 09:01:57;;;;;;;5.18;3.08;;;;;;;;;;5009979;28;20026;-77
2023/10/07 09:04:23;;;;;;;6.40;3.88;;;;;;;;;;4999770;28;20036;-77
2023/10/07 09:06:52;;;;;;;5.53;3.15;;;;;;;;;;5002942;28;20388;-77
2023/10/07 09:09:34;;;;;;;6.18;3.08;;;;;;;;;;5018020;28;20104;-77
2023/10/07 09:12:08;;;;;;;5.07;3.22;;;;;;;;;;5017311;28;20020;-77
2023/10/07 09:14:34;;;;;;;6.10;3.70;;;;;;;;;;5022950;28;20030;-78
2023/10/07 09:17:04;;;;;;;5.18;3.00;;;;;;;;;;5022439;28;20026;-78
2023/10/07 09:19:30;;;;;;;6.15;3.30;;;;;;;;;;5004877;28;20025;-78
2023/10/07 09:22:10;;;;;;;2.97;2.13;;;;;;;;;;5000465;28;20033;-78
2023/10/07 09:24:41;;;;;;;3.22;2.42;;;;;;;;;;5005528;28;20045;-78
2023/10/07 09:27:12;;;;;;;3.60;2.57;;;;;;;;;;5031928;28;20028;-77
2023/10/07 09:29:39;;;;;;;3.72;2.70;;;;;;;;;;5038730;28;20498;-77
2023/10/07 09:32:11;;;;;;;5.43;3.47;;;;;;;;;;5037171;28;20032;-78
2023/10/07 09:34:47;;;;;;;5.70;3.50;;;;;;;;;;5036656;28;20024;-77
2023/10/07 09:37:17;;;;;;;5.95;3.53;;;;;;;;;;5037471;28;20026;-77
2023/10/07 09:39:44;;;;;;;4.68;3.08;;;;;;;;;;5037118;28;20030;-78
2023/10/07 09:45:17;;;;;;;5.80;3.38;;;;;;;;;;4957851;29;20038;-77
2023/10/07 09:47:44;;;;;;;6.00;3.42;;;;;;;;;;4957765;28;20039;-78
2023/10/07 09:50:25;;;;;;;7.97;4.75;;;;;;;;;;4987422;28;20070;-77
2023/10/07 09:52:56;;;;;;;5.88;3.22;;;;;;;;;;5000182;28;20041;-78
2023/10/07 09:55:25;;;;;;;5.50;3.42;;;;;;;;;;5018967;28;20062;-78
2023/10/07 09:58:24;;;;;;;3.63;2.65;;;;;;;;;;5019179;28;20500;-77
2023/10/07 10:01:05;;;;;;;4.55;3.15;;;;;;;;;;5005987;28;20041;-77
2023/10/07 10:03:42;;;;;;;4.57;3.28;;;;;;;;;;5017326;28;20022;-78
2023/10/07 10:06:33;;;;;;;7.25;3.50;;;;;;;;;;5017803;28;20026;-78
2023/10/07 10:09:08;;;;;;;7.78;4.35;;;;;;;;;;5017260;28;20077;-78
2023/10/07 10:16:52;;;;;;;3.50;2.80;;;;;;;;;;5019065;28;20033;-78
2023/10/07 10:19:29;;;;;;;5.13;2.65;;;;;;;;;;5001444;28;20083;-78
2023/10/07 10:21:55;;;;;;;3.40;2.50;;;;;;;;;;5017007;28;20160;-77
2023/10/07 10:24:28;;;;;;;3.10;2.25;;;;;;;;;;5017490;28;20034;-78
2023/10/07 10:27:09;;;;;;;3.78;2.70;;;;;;;;;;5017948;28;20032;-78
2023/10/07 10:29:45;;;;;;;4.63;3.40;;;;;;;;;;5020736;28;20514;-77
2023/10/07 10:32:16;;;;;;;3.92;3.10;;;;;;;;;;5033716;28;20022;-77
2023/10/07 10:34:45;;;;;;;6.53;3.20;;;;;;;;;;5020822;28;20029;-78
2023/10/07 10:37:11;;;;;;;6.35;3.25;;;;;;;;;;5016931;28;20028;-77
2023/10/07 10:39:39;;;;;;;6.60;3.67;;;;;;;;;;4999935;28;20053;-78
2023/10/07 10:42:09;;;;;;;6.03;3.22;;;;;;;;;;4999103;28;20026;-77
2023/10/07 10:44:46;;;;;;;4.70;2.83;;;;;;;;;;5016919;28;20022;-78
2023/10/07 10:47:15;;;;;;;5.75;3.88;;;;;;;;;;5004313;28;20488;-78
2023/10/07 10:49:43;;;;;;;6.28;3.95;;;;;;;;;;5004122;28;20030;-78
2023/10/07 10:52:10;;;;;;;7.50;4.50;;;;;;;;;;5003274;28;20024;-77
2023/10/07 10:54:39;;;;;;;6.45;3.75;;;;;;;;;;5019109;28;20096;-78
2023/10/07 10:57:07;;;;;;;4.32;3.58;;;;;;;;;;5021028;28;20064;-78
2023/10/07 10:59:43;;;;;;;5.93;3.58;;;;;;;;;;5018900;28;20025;-79
2023/10/07 11:02:17;;;;;;;7.80;3.30;;;;;;;;;;5020669;28;20026;-77
2023/10/07 11:04:44;;;;;;;6.30;3.67;;;;;;;;;;5035059;28;20056;-78
2023/10/07 11:07:10;;;;;;;4.07;3.08;;;;;;;;;;5051577;28;20078;-77
2023/10/07 11:09:37;;;;;;;5.10;3.03;;;;;;;;;;5049416;28;20030;-77
2023/10/07 11:12:09;;;;;;;5.93;3.70;;;;;;;;;;5050283;28;20349;-77
2023/10/07 11:14:35;;;;;;;5.78;3.75;;;;;;;;;;5045935;28;20022;-78
2023/10/07 11:17:03;;;;;;;5.22;3.42;;;;;;;;;;5034777;28;20074;-77
2023/10/07 11:19:30;;;;;;;8.40;3.65;;;;;;;;;;5048424;28;20068;-78
2023/10/07 11:21:57;;;;;;;7.57;3.45;;;;;;;;;;5050150;28;20026;-77
2023/10/07 11:24:26;;;;;;;4.55;3.22;;;;;;;;;;5053872;28;20018;-77
2023/10/07 11:26:56;;;;;;;5.18;2.95;;;;;;;;;;5053688;28;20017;-78
2023/10/07 11:29:24;;;;;;;4.47;3.30;;;;;;;;;;5050882;28;20030;-77
2023/10/07 11:31:58;;;;;;;4.13;2.75;;;;;;;;;;5050954;28;20025;-76
2023/10/07 11:34:31;;;;;;;5.35;2.75;;;;;;;;;;5018088;28;20105;-78
2023/10/07 11:37:06;;;;;;;4.72;2.78;;;;;;;;;;5011144;28;20026;-77
2023/10/07 11:39:38;;;;;;;3.78;2.85;;;;;;;;;;5018294;28;20485;-77
2023/10/07 11:42:05;;;;;;;5.97;2.92;;;;;;;;;;5051795;23;20033;-76
2023/10/07 11:44:32;;;;;;;5.07;3.35;;;;;;;;;;5035163;28;20483;-76
2023/10/07 11:46:58;;;;;;;6.18;3.20;;;;;;;;;;5036175;28;20026;-77
2023/10/07 11:49:25;;;;;;;5.72;3.47;;;;;;;;;;5035474;28;20032;-77
2023/10/07 11:51:51;;;;;;;7.88;3.63;;;;;;;;;;5035295;28;20499;-76
2023/10/07 11:54:17;;;;;;;4.22;3.42;;;;;;;;;;5035601;28;20034;-76
2023/10/07 11:56:43;;;;;;;5.13;2.88;;;;;;;;;;5036197;28;20071;-77
2023/10/07 11:59:09;;;;;;;7.70;3.25;;;;;;;;;;5033989;28;20029;-77
2023/10/07 12:01:35;;;;;;;6.22;2.90;;;;;;;;;;5036814;28;20129;-77
2023/10/07 12:04:01;;;;;;;4.57;3.20;;;;;;;;;;5036544;28;20030;-76
2023/10/07 12:06:27;;;;;;;4.40;2.60;;;;;;;;;;5035453;28;20034;-76
2023/10/07 12:08:53;;;;;;;4.32;3.20;;;;;;;;;;5036397;28;20510;-76
2023/10/07 12:11:19;;;;;;;4.35;3.17;;;;;;;;;;5046357;28;20132;-77
2023/10/07 12:13:46;;;;;;;3.17;2.38;;;;;;;;;;5056133;28;20514;-77
2023/10/07 12:16:12;;;;;;;5.43;2.60;;;;;;;;;;5055628;28;20104;-76
2023/10/07 12:18:39;;;;;;;4.68;3.08;;;;;;;;;;5055891;28;20037;-76
2023/10/07 12:21:11;;;;;;;3.90;2.58;;;;;;;;;;5070969;28;20032;-76
2023/10/07 12:23:39;;;;;;;5.22;2.85;;;;;;;;;;5056518;28;20116;-76
2023/10/07 12:26:15;;;;;;;3.58;2.92;;;;;;;;;;5057431;28;20024;-77
2023/10/07 12:28:42;;;;;;;4.80;3.05;;;;;;;;;;5054306;28;20167;-76
2023/10/07 12:31:14;;;;;;;5.43;2.78;;;;;;;;;;5055210;28;20475;-76
2023/10/07 12:33:40;;;;;;;7.43;2.83;;;;;;;;;;5070223;28;20017;-77
2023/10/07 12:36:10;;;;;;;4.95;2.90;;;;;;;;;;5055061;28;20024;-78
2023/10/07 12:38:37;;;;;;;3.67;2.72;;;;;;;;;;5055182;28;20025;-77
2023/10/07 12:41:06;;;;;;;4.57;2.70;;;;;;;;;;5054889;28;20029;-76
2023/10/07 12:43:33;;;;;;;6.90;3.30;;;;;;;;;;5054762;28;20032;-76
2023/10/07 12:46:00;;;;;;;4.47;2.75;;;;;;;;;;5052816;28;20455;-77
2023/10/07 12:48:27;;;;;;;6.78;2.70;;;;;;;;;;5054822;28;20478;-77
2023/10/07 12:50:53;;;;;;;4.28;3.00;;;;;;;;;;5053738;28;20029;-77
2023/10/07 12:53:19;;;;;;;5.43;2.83;;;;;;;;;;5054791;28;20028;-76
2023/10/07 12:55:48;;;;;;;5.78;2.83;;;;;;;;;;5071123;28;20445;-77
2023/10/07 12:58:18;;;;;;;2.60;2.30;;;;;;;;;;5055752;28;20021;-77
2023/10/07 13:00:44;;;;;;;4.03;2.90;;;;;;;;;;5050718;28;20026;-76
2023/10/07 13:03:12;;;;;;;3.58;2.70;;;;;;;;;;5035061;28;20029;-77
2023/10/07 13:05:38;;;;;;;3.75;3.15;;;;;;;;;;5035336;28;20133;-78
2023/10/07 13:08:11;;;;;;;6.03;2.80;;;;;;;;;;5034935;28;20025;-77
2023/10/07 13:10:38;;;;;;;10.68;2.92;;;;;;;;;;5035114;28;20029;-77
2023/10/07 13:13:04;;;;;;;4.15;2.47;;;;;;;;;;5033033;28;20025;-76
2023/10/07 13:15:30;;;;;;;3.83;2.65;;;;;;;;;;5034812;28;20456;-76
2023/10/07 13:17:59;;;;;;;3.75;2.55;;;;;;;;;;5041364;28;20032;-77
2023/10/07 13:20:26;;;;;;;4.68;3.00;;;;;;;;;;5042996;28;20341;-77
2023/10/07 13:23:06;;;;;;;3.08;2.20;;;;;;;;;;5032949;28;20476;-78
2023/10/07 13:25:35;;;;;;;3.45;2.17;;;;;;;;;;5034941;28;20373;-77
2023/10/07 13:28:02;;;;;;;3.75;2.42;;;;;;;;;;5034227;28;20030;-76
2023/10/07 13:30:30;;;;;;;5.28;2.80;;;;;;;;;;5034126;28;20033;-77
2023/10/07 13:32:56;;;;;;;4.30;2.60;;;;;;;;;;5034590;28;20025;-77
2023/10/07 13:35:24;;;;;;;3.70;2.97;;;;;;;;;;5036603;28;20029;-77
2023/10/07 13:37:52;;;;;;;3.92;2.83;;;;;;;;;;5053453;28;20044;-77
2023/10/07 13:40:19;;;;;;;4.80;3.00;;;;;;;;;;5070638;28;20021;-75
2023/10/07 13:42:47;;;;;;;6.03;2.70;;;;;;;;;;5048756;28;20069;-76
2023/10/07 13:45:21;;;;;;;5.90;3.03;;;;;;;;;;5035884;28;20033;-77
2023/10/07 13:47:48;;;;;;;5.10;2.75;;;;;;;;;;5034444;28;20018;-75
2023/10/07 13:50:15;;;;;;;3.83;2.50;;;;;;;;;;5034067;28;20041;-76
2023/10/07 13:52:51;;;;;;;4.03;2.72;;;;;;;;;;5035573;28;20032;-77
2023/10/07 13:55:33;;;;;;;4.68;2.92;;;;;;;;;;5033984;28;20021;-76
2023/10/07 13:57:59;;;;;;;;;;;;;;;;;;5034444;28;20071;-77
2023/10/07 14:00:35;;;;;;;3.72;2.50;;;;;;;;;;5033852;28;19934;-76
2023/10/07 14:03:20;;;;;;;5.93;3.20;;;;;;;;;;5033517;28;20108;-76
2023/10/07 14:05:49;;;;;;;4.38;2.67;;;;;;;;;;5034446;28;20025;-77
2023/10/07 14:08:19;;;;;;;3.90;2.65;;;;;;;;;;5041005;28;20021;-76
2023/10/07 14:10:55;;;;;;;3.92;2.70;;;;;;;;;;5053618;28;20025;-77
2023/10/07 14:13:26;;;;;;;3.78;2.65;;;;;;;;;;5053310;28;20092;-77
2023/10/07 14:15:53;;;;;;;3.58;2.60;;;;;;;;;;5053794;28;20029;-76
2023/10/07 14:18:20;;;;;;;4.10;3.15;;;;;;;;;;5053522;28;20048;-75
2023/10/07 14:21:00;;;;;;;3.75;2.63;;;;;;;;;;5053694;28;20029;-76
2023/10/07 14:23:33;;;;;;;4.63;3.17;;;;;;;;;;5053306;28;20025;-75
2023/10/07 14:26:03;;;;;;;4.00;2.33;;;;;;;;;;5052463;28;20021;-76
2023/10/07 14:28:29;;;;;;;4.75;2.67;;;;;;;;;;5054239;28;20047;-76
2023/10/07 14:30:55;;;;;;;4.80;2.30;;;;;;;;;;5053841;28;20052;-77
2023/10/07 14:33:21;;;;;;;3.80;2.60;;;;;;;;;;5054400;28;20111;-77
2023/10/07 14:35:48;;;;;;;3.20;2.33;;;;;;;;;;5054400;28;20072;-76
2023/10/07 14:38:14;;;;;;;5.03;2.30;;;;;;;;;;5067607;28;20151;-76
2023/10/07 14:40:49;;;;;;;3.63;2.67;;;;;;;;;;5068313;28;20032;-76
2023/10/07 14:43:15;;;;;;;4.70;2.88;;;;;;;;;;5049425;28;20093;-74
2023/10/07 14:45:48;;;;;;;3.72;2.58;;;;;;;;;;5084198;28;20059;-75
2023/10/07 14:48:14;;;;;;;3.05;2.45;;;;;;;;;;5069288;28;20135;-75
2023/10/07 14:50:40;;;;;;;3.58;2.35;;;;;;;;;;5064799;28;20032;-75
2023/10/07 14:53:07;;;;;;;3.50;2.90;;;;;;;;;;5054090;28;20036;-76
2023/10/07 14:55:33;;;;;;;3.95;2.90;;;;;;;;;;5053886;28;20515;-77
2023/10/07 14:58:03;;;;;;;4.75;2.67;;;;;;;;;;5052246;28;20049;-76
2023/10/07 15:00:30;;;;;;;3.35;2.47;;;;;;;;;;5052980;28;20379;-77
2023/10/07 15:02:58;;;;;;;4.47;2.42;;;;;;;;;;5068154;28;20025;-77
2023/10/07 15:05:28;;;;;;;6.18;2.85;;;;;;;;;;5068383;28;20089;-77
2023/10/07 15:07:54;;;;;;;3.30;2.28;;;;;;;;;;5053065;28;20025;-77
2023/10/07 15:10:21;;;;;;;3.85;2.25;;;;;;;;;;5052647;28;20104;-77
2023/10/07 15:12:48;;;;;;;4.60;2.95;;;;;;;;;;5068224;28;20709;-76
2023/10/07 15:15:18;;;;;;;3.70;2.70;;;;;;;;;;5050561;28;20029;-76
2023/10/07 15:17:47;;;;;;;3.15;2.13;;;;;;;;;;5053319;28;20695;-76
2023/10/07 15:20:16;;;;;;;3.83;2.35;;;;;;;;;;5071284;28;20098;-77
2023/10/07 15:22:43;;;;;;;4.53;2.70;;;;;;;;;;5053391;28;20095;-77
2023/10/07 15:25:11;;;;;;;2.95;2.20;;;;;;;;;;5053702;28;20052;-77
2023/10/07 15:27:38;;;;;;;4.15;2.60;;;;;;;;;;5053282;28;20032;-75
2023/10/07 15:30:04;;;;;;;3.75;2.47;;;;;;;;;;5053473;28;20029;-76
2023/10/07 15:32:30;;;;;;;5.45;2.65;;;;;;;;;;5051374;28;20029;-75
2023/10/07 15:34:57;;;;;;;3.38;2.55;;;;;;;;;;5053592;28;20044;-76
2023/10/07 15:37:23;;;;;;;5.22;2.78;;;;;;;;;;5053023;28;20514;-76
2023/10/07 15:39:49;;;;;;;3.42;2.42;;;;;;;;;;5052912;28;20108;-77
2023/10/07 15:42:17;;;;;;;3.88;2.33;;;;;;;;;;5052757;28;20064;-76